createdAt,value
2017-07-03T00:00:22.895Z,1020.8
2017-07-03T00:01:22.478Z,1020.9
2017-07-03T00:02:21.695Z,1020.9
2017-07-03T00:03:20.907Z,1020.9
2017-07-03T00:04:20.119Z,1020.9
2017-07-03T00:06:18.777Z,1020.9
2017-07-03T00:07:17.989Z,1021
2017-07-03T00:08:17.200Z,1021
2017-07-03T00:09:16.283Z,1021
2017-07-03T00:10:15.435Z,1021
2017-07-03T00:11:14.646Z,1021
2017-07-03T00:12:14.359Z,1021
2017-07-03T00:13:13.567Z,1021
2017-07-03T00:13:44.102Z,1021
2017-07-03T00:14:14.638Z,1021
2017-07-03T00:15:11.826Z,1021
2017-07-03T00:16:10.913Z,1021
2017-07-03T00:17:10.631Z,1021
2017-07-03T00:18:09.526Z,1021
2017-07-03T00:19:09.043Z,1021
2017-07-03T00:20:08.243Z,1021
2017-07-03T00:21:07.453Z,1021
2017-07-03T00:22:06.680Z,1021.1
2017-07-03T00:23:05.884Z,1021.1
2017-07-03T00:24:05.116Z,1021.1
2017-07-03T00:25:04.332Z,1021
2017-07-03T00:26:03.556Z,1021.1
2017-07-03T00:27:02.795Z,1021.1
2017-07-03T00:28:02.270Z,1021.1
2017-07-03T00:29:01.555Z,1021.1
2017-07-03T00:30:00.764Z,1021.1
2017-07-03T00:30:59.869Z,1021.1
2017-07-03T00:31:59.080Z,1021.1
2017-07-03T00:32:58.293Z,1021.1
2017-07-03T00:33:57.506Z,1021.1
2017-07-03T00:34:56.756Z,1021.1
2017-07-03T00:35:56.485Z,1021
2017-07-03T00:36:55.701Z,1021
2017-07-03T00:37:54.695Z,1021
2017-07-03T00:38:53.989Z,1021.1
2017-07-03T00:39:53.104Z,1021.1
2017-07-03T00:40:52.319Z,1021.1
2017-07-03T00:41:51.531Z,1021.1
2017-07-03T00:42:22.053Z,1021.1
2017-07-03T00:42:52.600Z,1021.2
2017-07-03T00:43:23.126Z,1021.2
2017-07-03T00:43:53.588Z,1021.1
2017-07-03T00:44:24.003Z,1021.1
2017-07-03T00:45:48.892Z,1021.1
2017-07-03T00:46:48.095Z,1021.1
2017-07-03T00:47:47.373Z,1021.1
2017-07-03T00:48:46.459Z,1021.1
2017-07-03T00:49:45.682Z,1021.1
2017-07-03T00:50:45.292Z,1021.1
2017-07-03T00:51:44.059Z,1021.1
2017-07-03T00:52:43.764Z,1021.2
2017-07-03T00:53:42.965Z,1021.1
2017-07-03T00:54:42.190Z,1021.2
2017-07-03T00:55:41.409Z,1021.2
2017-07-03T00:56:40.521Z,1021.2
2017-07-03T00:58:39.126Z,1021.2
2017-07-03T00:59:38.157Z,1021.2
2017-07-03T01:00:37.371Z,1021.2
2017-07-03T01:01:36.588Z,1021.2
2017-07-03T01:02:36.191Z,1021.2
2017-07-03T01:03:35.404Z,1021.2
2017-07-03T01:04:34.670Z,1021.2
2017-07-03T01:05:33.960Z,1021.3
2017-07-03T01:06:33.248Z,1021.3
2017-07-03T01:07:32.465Z,1021.2
2017-07-03T01:08:31.669Z,1021.3
2017-07-03T01:09:30.782Z,1021.2
2017-07-03T01:10:29.992Z,1021.2
2017-07-03T01:11:29.078Z,1021.3
2017-07-03T01:12:28.679Z,1021.3
2017-07-03T01:13:27.970Z,1021.3
2017-07-03T01:14:27.168Z,1021.3
2017-07-03T01:15:26.395Z,1021.3
2017-07-03T01:16:25.607Z,1021.3
2017-07-03T01:17:24.870Z,1021.3
2017-07-03T01:18:24.066Z,1021.3
2017-07-03T01:19:23.279Z,1021.3
2017-07-03T01:20:22.506Z,1021.4
2017-07-03T01:21:21.791Z,1021.4
2017-07-03T01:22:21.006Z,1021.4
2017-07-03T01:23:20.200Z,1021.4
2017-07-03T01:24:19.402Z,1021.4
2017-07-03T01:25:18.897Z,1021.4
2017-07-03T01:26:17.999Z,1021.4
2017-07-03T01:27:17.080Z,1021.3
2017-07-03T01:28:16.294Z,1021.4
2017-07-03T01:29:15.504Z,1021.4
2017-07-03T01:30:15.098Z,1021.4
2017-07-03T01:31:14.312Z,1021.3
2017-07-03T01:32:13.532Z,1021.3
2017-07-03T01:33:12.743Z,1021.4
2017-07-03T01:34:11.966Z,1021.4
2017-07-03T01:35:11.181Z,1021.4
2017-07-03T01:36:10.396Z,1021.4
2017-07-03T01:38:09.067Z,1021.5
2017-07-03T01:39:08.282Z,1021.5
2017-07-03T01:40:07.470Z,1021.5
2017-07-03T01:41:06.684Z,1021.5
2017-07-03T01:42:06.036Z,1021.5
2017-07-03T01:43:05.251Z,1021.5
2017-07-03T01:44:04.388Z,1021.5
2017-07-03T01:45:03.671Z,1021.5
2017-07-03T01:46:02.977Z,1021.5
2017-07-03T01:47:02.249Z,1021.5
2017-07-03T01:48:01.469Z,1021.5
2017-07-03T01:49:00.736Z,1021.4
2017-07-03T01:49:59.961Z,1021.5
2017-07-03T01:50:59.217Z,1021.4
2017-07-03T01:51:58.445Z,1021.4
2017-07-03T01:52:57.661Z,1021.4
2017-07-03T01:53:56.896Z,1021.5
2017-07-03T01:54:56.109Z,1021.5
2017-07-03T01:56:54.203Z,1021.6
2017-07-03T01:57:53.432Z,1021.6
2017-07-03T01:58:52.707Z,1021.6
2017-07-03T01:59:52.294Z,1021.6
2017-07-03T02:00:51.396Z,1021.5
2017-07-03T02:01:50.783Z,1021.5
2017-07-03T02:02:49.890Z,1021.5
2017-07-03T02:03:49.175Z,1021.5
2017-07-03T02:04:48.394Z,1021.5
2017-07-03T02:05:47.601Z,1021.5
2017-07-03T02:06:46.792Z,1021.6
2017-07-03T02:07:45.998Z,1021.5
2017-07-03T02:08:16.592Z,1021.5
2017-07-03T02:09:44.426Z,1021.5
2017-07-03T02:10:43.645Z,1021.5
2017-07-03T02:11:42.864Z,1021.5
2017-07-03T02:12:42.066Z,1021.5
2017-07-03T02:13:41.285Z,1021.6
2017-07-03T02:14:40.499Z,1021.6
2017-07-03T02:15:39.714Z,1021.6
2017-07-03T02:16:38.931Z,1021.6
2017-07-03T02:17:38.531Z,1021.6
2017-07-03T02:18:37.744Z,1021.6
2017-07-03T02:19:36.518Z,1021.6
2017-07-03T02:20:35.728Z,1021.6
2017-07-03T02:21:35.429Z,1021.6
2017-07-03T02:22:34.636Z,1021.6
2017-07-03T02:23:33.740Z,1021.7
2017-07-03T02:24:32.958Z,1021.7
2017-07-03T02:25:32.311Z,1021.7
2017-07-03T02:26:31.516Z,1021.7
2017-07-03T02:27:30.716Z,1021.7
2017-07-03T02:28:29.936Z,1021.7
2017-07-03T02:30:28.066Z,1021.7
2017-07-03T02:31:27.656Z,1021.7
2017-07-03T02:32:26.873Z,1021.6
2017-07-03T02:33:26.105Z,1021.7
2017-07-03T02:34:25.184Z,1021.7
2017-07-03T02:35:24.287Z,1021.6
2017-07-03T02:36:23.503Z,1021.6
2017-07-03T02:37:23.094Z,1021.7
2017-07-03T02:38:22.190Z,1021.7
2017-07-03T02:39:21.550Z,1021.6
2017-07-03T02:40:20.646Z,1021.7
2017-07-03T02:41:19.861Z,1021.7
2017-07-03T02:42:18.945Z,1021.7
2017-07-03T02:43:18.448Z,1021.6
2017-07-03T02:44:17.662Z,1021.6
2017-07-03T02:45:16.746Z,1021.7
2017-07-03T02:46:15.960Z,1021.7
2017-07-03T02:47:15.057Z,1021.7
2017-07-03T02:48:14.660Z,1021.6
2017-07-03T02:49:13.868Z,1021.6
2017-07-03T02:50:12.654Z,1021.7
2017-07-03T02:52:11.249Z,1021.7
2017-07-03T02:53:10.458Z,1021.7
2017-07-03T02:54:09.667Z,1021.7
2017-07-03T02:55:08.889Z,1021.7
2017-07-03T02:56:08.101Z,1021.8
2017-07-03T02:57:07.318Z,1021.7
2017-07-03T02:58:06.532Z,1021.7
2017-07-03T02:59:05.734Z,1021.7
2017-07-03T03:00:04.957Z,1021.7
2017-07-03T03:01:04.172Z,1021.7
2017-07-03T03:02:03.887Z,1021.8
2017-07-03T03:03:03.089Z,1021.8
2017-07-03T03:04:02.304Z,1021.8
2017-07-03T03:05:01.512Z,1021.8
2017-07-03T03:06:00.498Z,1021.8
2017-07-03T03:06:59.989Z,1021.8
2017-07-03T03:07:59.200Z,1021.8
2017-07-03T03:08:58.423Z,1021.8
2017-07-03T03:09:57.637Z,1021.8
2017-07-03T03:10:56.853Z,1021.8
2017-07-03T03:11:56.065Z,1021.8
2017-07-03T03:12:55.288Z,1021.8
2017-07-03T03:13:54.508Z,1021.8
2017-07-03T03:14:53.804Z,1021.8
2017-07-03T03:15:53.101Z,1021.8
2017-07-03T03:16:52.194Z,1021.8
2017-07-03T03:17:51.410Z,1021.8
2017-07-03T03:18:21.835Z,1021.8
2017-07-03T03:18:52.242Z,1021.8
2017-07-03T03:19:49.986Z,1021.8
2017-07-03T03:20:49.205Z,1021.8
2017-07-03T03:21:48.425Z,1021.8
2017-07-03T03:22:47.634Z,1021.8
2017-07-03T03:23:46.843Z,1021.8
2017-07-03T03:24:46.061Z,1021.8
2017-07-03T03:25:45.278Z,1021.8
2017-07-03T03:26:44.488Z,1021.8
2017-07-03T03:27:15.008Z,1021.8
2017-07-03T03:27:45.301Z,1021.8
2017-07-03T03:28:42.889Z,1021.9
2017-07-03T03:29:42.125Z,1021.9
2017-07-03T03:30:41.398Z,1021.9
2017-07-03T03:31:40.363Z,1022
2017-07-03T03:32:39.591Z,1021.9
2017-07-03T03:33:38.812Z,1022
2017-07-03T03:34:38.420Z,1021.9
2017-07-03T03:35:37.451Z,1022
2017-07-03T03:36:36.662Z,1022
2017-07-03T03:37:35.878Z,1022
2017-07-03T03:38:35.094Z,1022
2017-07-03T03:39:05.628Z,1022
2017-07-03T03:39:36.227Z,1022
2017-07-03T03:40:06.754Z,1022
2017-07-03T03:40:37.282Z,1022
2017-07-03T03:41:32.974Z,1022
2017-07-03T03:42:32.182Z,1022
2017-07-03T03:43:31.400Z,1022
2017-07-03T03:44:30.494Z,1022
2017-07-03T03:45:29.595Z,1022
2017-07-03T03:46:29.186Z,1021.9
2017-07-03T03:47:28.279Z,1022
2017-07-03T03:48:27.499Z,1022
2017-07-03T03:49:26.739Z,1021.9
2017-07-03T03:50:25.712Z,1021.9
2017-07-03T03:51:24.921Z,1022
2017-07-03T03:52:24.121Z,1021.9
2017-07-03T03:53:23.333Z,1021.9
2017-07-03T03:54:22.927Z,1022
2017-07-03T03:55:22.030Z,1022
2017-07-03T03:56:21.121Z,1022
2017-07-03T03:57:20.334Z,1022
2017-07-03T03:58:19.541Z,1022
2017-07-03T03:58:49.944Z,1022
2017-07-03T04:00:18.350Z,1022
2017-07-03T04:01:17.447Z,1022
2017-07-03T04:02:16.727Z,1022
2017-07-03T04:03:15.943Z,1022.1
2017-07-03T04:04:15.165Z,1022.1
2017-07-03T04:05:14.474Z,1022.1
2017-07-03T04:06:13.261Z,1022.1
2017-07-03T04:07:12.503Z,1022.1
2017-07-03T04:08:11.725Z,1022.1
2017-07-03T04:09:10.939Z,1022.1
2017-07-03T04:10:10.169Z,1022.1
2017-07-03T04:10:40.778Z,1022.1
2017-07-03T04:11:11.303Z,1022.1
2017-07-03T04:12:09.007Z,1022.2
2017-07-03T04:13:08.227Z,1022.2
2017-07-03T04:14:07.327Z,1022.2
2017-07-03T04:15:06.538Z,1022.2
2017-07-03T04:16:05.806Z,1022.2
2017-07-03T04:17:05.101Z,1022.3
2017-07-03T04:18:04.314Z,1022.3
2017-07-03T04:19:03.587Z,1022.3
2017-07-03T04:20:02.801Z,1022.3
2017-07-03T04:21:01.858Z,1022.2
2017-07-03T04:22:01.070Z,1022.3
2017-07-03T04:23:00.280Z,1022.3
2017-07-03T04:23:59.565Z,1022.3
2017-07-03T04:24:58.773Z,1022.3
2017-07-03T04:25:57.984Z,1022.3
2017-07-03T04:26:57.097Z,1022.3
2017-07-03T04:27:56.321Z,1022.3
2017-07-03T04:28:55.873Z,1022.3
2017-07-03T04:29:55.084Z,1022.3
2017-07-03T04:30:54.358Z,1022.3
2017-07-03T04:31:53.571Z,1022.3
2017-07-03T04:33:51.676Z,1022.3
2017-07-03T04:35:50.164Z,1022.3
2017-07-03T04:36:49.480Z,1022.3
2017-07-03T04:37:48.701Z,1022.3
2017-07-03T04:38:47.916Z,1022.3
2017-07-03T04:39:47.133Z,1022.3
2017-07-03T04:40:46.353Z,1022.3
2017-07-03T04:41:45.572Z,1022.3
2017-07-03T04:42:44.671Z,1022.3
2017-07-03T04:43:44.318Z,1022.3
2017-07-03T04:44:43.526Z,1022.3
2017-07-03T04:45:42.746Z,1022.3
2017-07-03T04:46:41.957Z,1022.3
2017-07-03T04:47:41.174Z,1022.3
2017-07-03T04:48:40.389Z,1022.4
2017-07-03T04:49:39.649Z,1022.4
2017-07-03T04:50:38.910Z,1022.4
2017-07-03T04:51:38.136Z,1022.4
2017-07-03T04:52:37.335Z,1022.4
2017-07-03T04:54:35.835Z,1022.4
2017-07-03T04:55:35.039Z,1022.4
2017-07-03T04:56:34.252Z,1022.4
2017-07-03T04:57:33.344Z,1022.4
2017-07-03T04:58:32.324Z,1022.4
2017-07-03T04:59:31.814Z,1022.4
2017-07-03T05:00:31.023Z,1022.4
2017-07-03T05:01:30.121Z,1022.3
2017-07-03T05:02:29.350Z,1022.4
2017-07-03T05:03:28.566Z,1022.4
2017-07-03T05:04:27.797Z,1022.3
2017-07-03T05:04:58.209Z,1022.3
2017-07-03T05:05:28.730Z,1022.4
2017-07-03T05:05:59.016Z,1022.4
2017-07-03T05:07:25.395Z,1022.4
2017-07-03T05:08:24.609Z,1022.3
2017-07-03T05:09:23.899Z,1022.4
2017-07-03T05:10:23.132Z,1022.4
2017-07-03T05:11:22.327Z,1022.4
2017-07-03T05:12:21.874Z,1022.4
2017-07-03T05:13:20.852Z,1022.4
2017-07-03T05:14:20.396Z,1022.4
2017-07-03T05:15:19.615Z,1022.4
2017-07-03T05:16:18.825Z,1022.4
2017-07-03T05:17:18.042Z,1022.4
2017-07-03T05:18:17.253Z,1022.4
2017-07-03T05:20:15.501Z,1022.4
2017-07-03T05:21:14.717Z,1022.5
2017-07-03T05:22:13.933Z,1022.4
2017-07-03T05:23:13.144Z,1022.4
2017-07-03T05:24:12.421Z,1022.4
2017-07-03T05:25:11.648Z,1022.4
2017-07-03T05:26:10.742Z,1022.4
2017-07-03T05:28:09.344Z,1022.5
2017-07-03T05:29:08.562Z,1022.5
2017-07-03T05:30:07.877Z,1022.5
2017-07-03T05:31:07.092Z,1022.5
2017-07-03T05:32:06.317Z,1022.5
2017-07-03T05:33:05.553Z,1022.5
2017-07-03T05:34:04.769Z,1022.5
2017-07-03T05:35:03.856Z,1022.5
2017-07-03T05:36:03.072Z,1022.5
2017-07-03T05:37:02.755Z,1022.5
2017-07-03T05:38:01.985Z,1022.5
2017-07-03T05:40:00.100Z,1022.6
2017-07-03T05:40:59.461Z,1022.5
2017-07-03T05:41:58.680Z,1022.5
2017-07-03T05:42:57.892Z,1022.6
2017-07-03T05:43:57.208Z,1022.6
2017-07-03T05:44:27.727Z,1022.6
2017-07-03T05:44:58.159Z,1022.6
2017-07-03T05:45:28.684Z,1022.6
2017-07-03T05:45:59.100Z,1022.5
2017-07-03T05:46:29.611Z,1022.5
2017-07-03T05:47:54.071Z,1022.5
2017-07-03T05:49:52.440Z,1022.6
2017-07-03T05:50:51.650Z,1022.6
2017-07-03T05:51:51.241Z,1022.6
2017-07-03T05:52:50.461Z,1022.6
2017-07-03T05:53:49.746Z,1022.6
2017-07-03T05:54:48.967Z,1022.6
2017-07-03T05:55:48.254Z,1022.5
2017-07-03T05:56:18.739Z,1022.5
2017-07-03T05:56:49.138Z,1022.5
2017-07-03T05:57:19.533Z,1022.5
2017-07-03T05:57:50.116Z,1022.6
2017-07-03T05:58:20.593Z,1022.6
2017-07-03T05:59:44.976Z,1022.6
2017-07-03T06:00:43.999Z,1022.6
2017-07-03T06:01:43.229Z,1022.6
2017-07-03T06:02:42.454Z,1022.5
2017-07-03T06:04:41.340Z,1022.5
2017-07-03T06:05:40.550Z,1022.5
2017-07-03T06:06:39.752Z,1022.5
2017-07-03T06:07:38.965Z,1022.5
2017-07-03T06:08:38.170Z,1022.5
2017-07-03T06:09:37.273Z,1022.5
2017-07-03T06:10:36.449Z,1022.6
2017-07-03T06:11:35.600Z,1022.6
2017-07-03T06:12:34.808Z,1022.6
2017-07-03T06:13:34.012Z,1022.6
2017-07-03T06:14:33.226Z,1022.6
2017-07-03T06:15:32.437Z,1022.6
2017-07-03T06:16:03.017Z,1022.6
2017-07-03T06:16:33.541Z,1022.6
2017-07-03T06:17:31.122Z,1022.5
2017-07-03T06:18:30.337Z,1022.6
2017-07-03T06:19:29.548Z,1022.6
2017-07-03T06:20:28.893Z,1022.6
2017-07-03T06:21:28.109Z,1022.6
2017-07-03T06:22:27.210Z,1022.6
2017-07-03T06:23:26.352Z,1022.6
2017-07-03T06:24:25.565Z,1022.6
2017-07-03T06:25:24.805Z,1022.6
2017-07-03T06:26:24.410Z,1022.6
2017-07-03T06:27:23.636Z,1022.6
2017-07-03T06:28:22.862Z,1022.6
2017-07-03T06:30:21.479Z,1022.6
2017-07-03T06:31:20.564Z,1022.6
2017-07-03T06:32:19.787Z,1022.5
2017-07-03T06:33:19.002Z,1022.6
2017-07-03T06:34:18.212Z,1022.5
2017-07-03T06:35:17.486Z,1022.5
2017-07-03T06:36:16.703Z,1022.5
2017-07-03T06:36:47.285Z,1022.5
2017-07-03T06:37:17.832Z,1022.6
2017-07-03T06:37:48.370Z,1022.6
2017-07-03T06:39:14.142Z,1022.6
2017-07-03T06:40:13.872Z,1022.6
2017-07-03T06:41:13.087Z,1022.5
2017-07-03T06:42:11.858Z,1022.5
2017-07-03T06:43:11.458Z,1022.6
2017-07-03T06:44:10.620Z,1022.6
2017-07-03T06:45:09.844Z,1022.5
2017-07-03T06:46:09.050Z,1022.6
2017-07-03T06:47:08.267Z,1022.5
2017-07-03T06:48:07.483Z,1022.5
2017-07-03T06:49:06.699Z,1022.6
2017-07-03T06:50:05.904Z,1022.6
2017-07-03T06:51:05.498Z,1022.6
2017-07-03T06:52:04.774Z,1022.6
2017-07-03T06:53:04.004Z,1022.5
2017-07-03T06:54:03.263Z,1022.5
2017-07-03T06:55:02.499Z,1022.5
2017-07-03T06:56:01.706Z,1022.5
2017-07-03T06:57:00.989Z,1022.5
2017-07-03T06:58:00.206Z,1022.5
2017-07-03T06:58:59.413Z,1022.5
2017-07-03T06:59:58.628Z,1022.5
2017-07-03T07:00:57.731Z,1022.5
2017-07-03T07:01:56.941Z,1022.5
2017-07-03T07:02:56.153Z,1022.5
2017-07-03T07:03:55.236Z,1022.5
2017-07-03T07:04:54.970Z,1022.5
2017-07-03T07:05:53.775Z,1022.5
2017-07-03T07:06:53.043Z,1022.5
2017-07-03T07:07:52.276Z,1022.5
2017-07-03T07:08:51.983Z,1022.5
2017-07-03T07:09:51.204Z,1022.5
2017-07-03T07:10:50.424Z,1022.5
2017-07-03T07:11:49.699Z,1022.6
2017-07-03T07:12:48.796Z,1022.6
2017-07-03T07:13:48.006Z,1022.6
2017-07-03T07:14:47.224Z,1022.6
2017-07-03T07:15:46.443Z,1022.6
2017-07-03T07:16:45.663Z,1022.5
2017-07-03T07:17:44.749Z,1022.5
2017-07-03T07:18:44.351Z,1022.5
2017-07-03T07:19:43.568Z,1022.5
2017-07-03T07:20:42.781Z,1022.5
2017-07-03T07:21:42.069Z,1022.5
2017-07-03T07:22:41.187Z,1022.6
2017-07-03T07:23:40.412Z,1022.5
2017-07-03T07:24:39.624Z,1022.5
2017-07-03T07:25:38.904Z,1022.5
2017-07-03T07:26:38.509Z,1022.5
2017-07-03T07:27:37.658Z,1022.5
2017-07-03T07:28:36.881Z,1022.5
2017-07-03T07:29:36.084Z,1022.5
2017-07-03T07:30:35.289Z,1022.5
2017-07-03T07:31:34.568Z,1022.5
2017-07-03T07:32:33.774Z,1022.5
2017-07-03T07:33:32.862Z,1022.5
2017-07-03T07:34:32.455Z,1022.5
2017-07-03T07:35:31.673Z,1022.5
2017-07-03T07:36:30.881Z,1022.5
2017-07-03T07:37:30.149Z,1022.5
2017-07-03T07:38:29.349Z,1022.6
2017-07-03T07:39:28.566Z,1022.5
2017-07-03T07:40:27.780Z,1022.6
2017-07-03T07:41:27.145Z,1022.5
2017-07-03T07:42:26.349Z,1022.5
2017-07-03T07:43:25.835Z,1022.6
2017-07-03T07:44:24.933Z,1022.5
2017-07-03T07:45:24.151Z,1022.5
2017-07-03T07:46:23.419Z,1022.5
2017-07-03T07:47:22.696Z,1022.5
2017-07-03T07:48:21.802Z,1022.5
2017-07-03T07:49:21.540Z,1022.5
2017-07-03T07:50:20.827Z,1022.5
2017-07-03T07:51:20.044Z,1022.6
2017-07-03T07:52:19.138Z,1022.5
2017-07-03T07:53:18.344Z,1022.5
2017-07-03T07:54:17.557Z,1022.5
2017-07-03T07:55:16.717Z,1022.5
2017-07-03T07:56:16.366Z,1022.5
2017-07-03T07:57:15.644Z,1022.5
2017-07-03T07:58:14.624Z,1022.5
2017-07-03T07:59:13.833Z,1022.5
2017-07-03T08:00:13.050Z,1022.5
2017-07-03T08:01:12.315Z,1022.5
2017-07-03T08:02:12.031Z,1022.5
2017-07-03T08:03:11.238Z,1022.4
2017-07-03T08:03:41.771Z,1022.4
2017-07-03T08:05:09.671Z,1022.5
2017-07-03T08:06:08.952Z,1022.5
2017-07-03T08:07:08.155Z,1022.4
2017-07-03T08:08:07.373Z,1022.4
2017-07-03T08:09:06.584Z,1022.4
2017-07-03T08:10:05.808Z,1022.4
2017-07-03T08:11:05.534Z,1022.4
2017-07-03T08:12:04.765Z,1022.4
2017-07-03T08:13:03.865Z,1022.4
2017-07-03T08:14:03.077Z,1022.4
2017-07-03T08:14:33.492Z,1022.4
2017-07-03T08:15:04.021Z,1022.4
2017-07-03T08:15:34.565Z,1022.4
2017-07-03T08:16:05.083Z,1022.5
2017-07-03T08:17:00.786Z,1022.4
2017-07-03T08:18:00.388Z,1022.4
2017-07-03T08:19:58.959Z,1022.5
2017-07-03T08:20:58.057Z,1022.4
2017-07-03T08:21:57.574Z,1022.4
2017-07-03T08:22:56.787Z,1022.4
2017-07-03T08:23:56.046Z,1022.5
2017-07-03T08:24:55.142Z,1022.5
2017-07-03T08:25:54.362Z,1022.5
2017-07-03T08:26:53.582Z,1022.5
2017-07-03T08:27:52.874Z,1022.4
2017-07-03T08:28:52.585Z,1022.4
2017-07-03T08:29:51.867Z,1022.5
2017-07-03T08:30:50.724Z,1022.4
2017-07-03T08:31:50.005Z,1022.4
2017-07-03T08:32:49.719Z,1022.4
2017-07-03T08:33:48.940Z,1022.4
2017-07-03T08:34:48.151Z,1022.3
2017-07-03T08:35:47.361Z,1022.2
2017-07-03T08:36:46.454Z,1022.3
2017-07-03T08:37:45.981Z,1022.2
2017-07-03T08:38:45.214Z,1022.2
2017-07-03T08:39:44.486Z,1022.2
2017-07-03T08:40:43.700Z,1022.2
2017-07-03T08:41:42.918Z,1022.2
2017-07-03T08:42:42.524Z,1022.2
2017-07-03T08:43:41.786Z,1022.2
2017-07-03T08:44:40.997Z,1022.2
2017-07-03T08:45:40.230Z,1022.2
2017-07-03T08:47:38.838Z,1022.2
2017-07-03T08:48:38.054Z,1022.2
2017-07-03T08:49:37.269Z,1022.2
2017-07-03T08:50:36.871Z,1022.2
2017-07-03T08:51:35.967Z,1022.2
2017-07-03T08:52:35.168Z,1022.2
2017-07-03T08:53:34.451Z,1022.1
2017-07-03T08:54:33.679Z,1022.2
2017-07-03T08:55:32.905Z,1022.2
2017-07-03T08:56:32.627Z,1022.2
2017-07-03T08:57:31.712Z,1022.2
2017-07-03T08:58:30.922Z,1022.2
2017-07-03T08:59:30.524Z,1022.2
2017-07-03T09:00:29.503Z,1022.2
2017-07-03T09:01:29.107Z,1022.2
2017-07-03T09:02:28.395Z,1022.2
2017-07-03T09:03:27.616Z,1022.2
2017-07-03T09:04:26.837Z,1022.2
2017-07-03T09:05:25.934Z,1022.2
2017-07-03T09:06:25.143Z,1022.2
2017-07-03T09:07:24.907Z,1022.1
2017-07-03T09:08:23.892Z,1022.1
2017-07-03T09:09:23.032Z,1022.1
2017-07-03T09:10:22.627Z,1022.1
2017-07-03T09:11:21.838Z,1022.1
2017-07-03T09:12:20.938Z,1022.1
2017-07-03T09:12:51.537Z,1022.1
2017-07-03T09:14:19.948Z,1022.1
2017-07-03T09:15:19.220Z,1022
2017-07-03T09:16:18.437Z,1022
2017-07-03T09:17:17.651Z,1022.1
2017-07-03T09:18:16.864Z,1022
2017-07-03T09:19:16.086Z,1022
2017-07-03T09:20:15.373Z,1022
2017-07-03T09:21:14.594Z,1022
2017-07-03T09:22:14.306Z,1022
2017-07-03T09:23:13.515Z,1022
2017-07-03T09:23:44.115Z,1022
2017-07-03T09:25:11.971Z,1022
2017-07-03T09:26:11.181Z,1022
2017-07-03T09:27:10.668Z,1022
2017-07-03T09:28:09.943Z,1021.9
2017-07-03T09:29:09.171Z,1022
2017-07-03T09:30:08.387Z,1022
2017-07-03T09:31:08.102Z,1022
2017-07-03T09:32:07.307Z,1021.9
2017-07-03T09:33:06.516Z,1021.9
2017-07-03T09:34:05.603Z,1021.9
2017-07-03T09:35:05.208Z,1021.9
2017-07-03T09:36:04.688Z,1021.8
2017-07-03T09:37:03.906Z,1021.9
2017-07-03T09:38:03.003Z,1021.9
2017-07-03T09:39:02.610Z,1021.9
2017-07-03T09:40:01.818Z,1021.9
2017-07-03T09:41:00.827Z,1021.9
2017-07-03T09:42:00.509Z,1021.9
2017-07-03T09:42:59.603Z,1021.8
2017-07-03T09:43:58.815Z,1021.8
2017-07-03T09:44:58.421Z,1021.8
2017-07-03T09:45:57.644Z,1021.8
2017-07-03T09:46:56.745Z,1021.8
2017-07-03T09:47:56.359Z,1021.8
2017-07-03T09:48:55.600Z,1021.8
2017-07-03T09:49:54.821Z,1021.8
2017-07-03T09:50:54.117Z,1021.8
2017-07-03T09:51:53.341Z,1021.8
2017-07-03T09:52:53.057Z,1021.9
2017-07-03T09:53:52.269Z,1021.8
2017-07-03T09:54:51.537Z,1021.8
2017-07-03T09:55:50.756Z,1021.7
2017-07-03T09:56:49.857Z,1021.7
2017-07-03T09:57:49.569Z,1021.8
2017-07-03T09:58:48.797Z,1021.8
2017-07-03T09:59:48.020Z,1021.7
2017-07-03T10:00:47.241Z,1021.8
2017-07-03T10:01:46.481Z,1021.7
2017-07-03T10:02:46.106Z,1021.8
2017-07-03T10:03:45.311Z,1021.8
2017-07-03T10:04:44.915Z,1021.7
2017-07-03T10:05:44.017Z,1021.7
2017-07-03T10:06:43.236Z,1021.8
2017-07-03T10:07:42.465Z,1021.8
2017-07-03T10:08:42.197Z,1021.8
2017-07-03T10:09:41.505Z,1021.7
2017-07-03T10:11:40.103Z,1021.8
2017-07-03T10:12:39.315Z,1021.8
2017-07-03T10:13:38.539Z,1021.8
2017-07-03T10:14:37.848Z,1021.8
2017-07-03T10:15:37.453Z,1021.8
2017-07-03T10:16:36.610Z,1021.8
2017-07-03T10:17:35.821Z,1021.8
2017-07-03T10:18:35.551Z,1021.8
2017-07-03T10:19:34.762Z,1021.8
2017-07-03T10:20:33.971Z,1021.8
2017-07-03T10:21:33.190Z,1021.9
2017-07-03T10:22:32.919Z,1021.9
2017-07-03T10:23:32.141Z,1021.9
2017-07-03T10:24:31.242Z,1021.8
2017-07-03T10:25:30.452Z,1021.9
2017-07-03T10:26:30.053Z,1021.8
2017-07-03T10:27:29.150Z,1021.8
2017-07-03T10:28:28.863Z,1021.9
2017-07-03T10:29:28.096Z,1021.9
2017-07-03T10:30:27.590Z,1021.9
2017-07-03T10:31:26.716Z,1021.9
2017-07-03T10:32:25.956Z,1021.8
2017-07-03T10:33:25.160Z,1021.7
2017-07-03T10:34:24.752Z,1021.7
2017-07-03T10:35:23.967Z,1021.7
2017-07-03T10:36:23.147Z,1021.7
2017-07-03T10:37:22.927Z,1021.7
2017-07-03T10:38:21.898Z,1021.6
2017-07-03T10:39:21.508Z,1021.6
2017-07-03T10:41:20.127Z,1021.6
2017-07-03T10:42:19.366Z,1021.6
2017-07-03T10:43:18.582Z,1021.6
2017-07-03T10:44:18.294Z,1021.6
2017-07-03T10:45:17.595Z,1021.6
2017-07-03T10:47:16.192Z,1021.5
2017-07-03T10:48:15.289Z,1021.5
2017-07-03T10:49:14.877Z,1021.6
2017-07-03T10:50:14.084Z,1021.5
2017-07-03T10:51:13.289Z,1021.5
2017-07-03T10:51:43.825Z,1021.5
2017-07-03T10:52:14.337Z,1021.5
2017-07-03T10:53:12.427Z,1021.6
2017-07-03T10:54:11.735Z,1021.6
2017-07-03T10:55:10.956Z,1021.6
2017-07-03T10:56:10.159Z,1021.5
2017-07-03T10:57:09.874Z,1021.5
2017-07-03T10:58:09.091Z,1021.5
2017-07-03T10:59:08.311Z,1021.5
2017-07-03T11:00:07.546Z,1021.5
2017-07-03T11:01:07.134Z,1021.6
2017-07-03T11:02:06.352Z,1021.5
2017-07-03T11:03:05.957Z,1021.5
2017-07-03T11:04:05.164Z,1021.5
2017-07-03T11:05:04.372Z,1021.5
2017-07-03T11:06:04.093Z,1021.5
2017-07-03T11:07:03.184Z,1021.5
2017-07-03T11:08:02.790Z,1021.5
2017-07-03T11:09:02.014Z,1021.4
2017-07-03T11:10:01.234Z,1021.3
2017-07-03T11:11:00.836Z,1021.3
2017-07-03T11:11:59.929Z,1021.4
2017-07-03T11:12:59.205Z,1021.5
2017-07-03T11:13:58.603Z,1021.4
2017-07-03T11:14:58.324Z,1021.4
2017-07-03T11:15:57.530Z,1021.4
2017-07-03T11:16:56.744Z,1021.4
2017-07-03T11:17:56.355Z,1021.4
2017-07-03T11:18:55.444Z,1021.4
2017-07-03T11:19:55.053Z,1021.4
2017-07-03T11:20:54.285Z,1021.4
2017-07-03T11:21:53.494Z,1021.4
2017-07-03T11:22:53.209Z,1021.3
2017-07-03T11:23:52.416Z,1021.4
2017-07-03T11:24:52.032Z,1021.4
2017-07-03T11:25:51.139Z,1021.5
2017-07-03T11:26:50.622Z,1021.5
2017-07-03T11:27:49.847Z,1021.4
2017-07-03T11:28:49.451Z,1021.4
2017-07-03T11:29:48.754Z,1021.4
2017-07-03T11:30:47.981Z,1021.5
2017-07-03T11:31:47.260Z,1021.4
2017-07-03T11:32:17.779Z,1021.4
2017-07-03T11:33:46.188Z,1021.4
2017-07-03T11:34:45.798Z,1021.3
2017-07-03T11:35:45.020Z,1021.4
2017-07-03T11:36:44.117Z,1021.4
2017-07-03T11:37:43.828Z,1021.4
2017-07-03T11:38:43.047Z,1021.4
2017-07-03T11:39:42.707Z,1021.3
2017-07-03T11:40:41.948Z,1021.2
2017-07-03T11:41:41.055Z,1021.4
2017-07-03T11:42:40.652Z,1021.4
2017-07-03T11:43:11.120Z,1021.4
2017-07-03T11:43:41.641Z,1021.3
2017-07-03T11:44:12.043Z,1021.3
2017-07-03T11:44:42.656Z,1021.3
2017-07-03T11:45:13.180Z,1021.3
2017-07-03T11:45:43.852Z,1021.4
2017-07-03T11:46:14.283Z,1021.4
2017-07-03T11:47:37.649Z,1021.3
2017-07-03T11:48:36.759Z,1021.2
2017-07-03T11:49:36.366Z,1021.2
2017-07-03T11:50:35.966Z,1021.2
2017-07-03T11:51:35.165Z,1021.2
2017-07-03T11:52:34.369Z,1021.2
2017-07-03T11:53:34.088Z,1021.3
2017-07-03T11:54:33.308Z,1021.3
2017-07-03T11:55:32.573Z,1021.2
2017-07-03T11:56:32.279Z,1021.2
2017-07-03T11:57:31.506Z,1021.2
2017-07-03T11:58:30.728Z,1021.2
2017-07-03T11:59:30.489Z,1021.2
2017-07-03T12:00:29.585Z,1021.2
2017-07-03T12:01:29.296Z,1021.2
2017-07-03T12:02:28.499Z,1021.2
2017-07-03T12:03:27.707Z,1021.2
2017-07-03T12:03:58.292Z,1021.2
2017-07-03T12:04:28.571Z,1021.2
2017-07-03T12:05:26.602Z,1021.3
2017-07-03T12:06:26.205Z,1021.3
2017-07-03T12:07:25.417Z,1021.2
2017-07-03T12:09:24.532Z,1021.2
2017-07-03T12:10:23.642Z,1021.2
2017-07-03T12:11:23.245Z,1021.2
2017-07-03T12:12:22.344Z,1021.1
2017-07-03T12:13:22.068Z,1021.1
2017-07-03T12:14:21.287Z,1021.1
2017-07-03T12:15:21.011Z,1021.1
2017-07-03T12:16:20.102Z,1021.1
2017-07-03T12:16:50.626Z,1021.1
2017-07-03T12:17:21.242Z,1021.1
2017-07-03T12:17:51.770Z,1021.1
2017-07-03T12:18:22.322Z,1021
2017-07-03T12:19:18.503Z,1021
2017-07-03T12:20:17.715Z,1020.9